Terminal Aerodrome Forecast
Issued by NWS Spokane, WA

Home | Current Version | Previous Version | Text Only | Print | Product List | Glossary On
Versions: 1 2 3 4 5 6 7 8 9 10 11 12 13 14 15 16 17 18 19 20 21 22 23 24 25 26 27 28 29 30 31 32 33 34 35 36 37 38
000
FTUS46 KOTX 301126
TAFLWS
TAF
KLWS 301126Z 3012/3112 VRB03KT 6SM BR OVC008
     FM301400 VRB02KT 5SM BR OVC008
     FM302200 30003KT P6SM BKN012
     FM310100 28003KT P6SM OVC009
     FM310700 18003KT P6SM OVC007=

USA.gov is the U.S. government's official web portal to all federal, state and local government web resources and services.